sensor_id;sensor_type;location;lat;lon;timestamp;temperature;humidity
24011;DHT22;12217;50.792;4.372;2023-07-31T00:01:15;18.00;99.90
24011;DHT22;12217;50.792;4.372;2023-07-31T00:03:40;18.00;99.90
24011;DHT22;12217;50.792;4.372;2023-07-31T00:06:06;17.90;99.90
24011;DHT22;12217;50.792;4.372;2023-07-31T00:08:32;17.80;99.90
24011;DHT22;12217;50.792;4.372;2023-07-31T00:10:57;17.70;99.90
24011;DHT22;12217;50.792;4.372;2023-07-31T00:13:23;17.70;99.90
24011;DHT22;12217;50.792;4.372;2023-07-31T00:15:48;17.70;99.90
24011;DHT22;12217;50.792;4.372;2023-07-31T00:18:14;17.70;99.90
24011;DHT22;12217;50.792;4.372;2023-07-31T00:20:40;17.90;99.90
24011;DHT22;12217;50.792;4.372;2023-07-31T00:23:06;18.00;99.90
24011;DHT22;12217;50.792;4.372;2023-07-31T00:25:31;18.00;99.90
24011;DHT22;12217;50.792;4.372;2023-07-31T00:27:57;17.90;99.90
24011;DHT22;12217;50.792;4.372;2023-07-31T00:30:22;17.80;99.90
24011;DHT22;12217;50.792;4.372;2023-07-31T00:32:50;17.80;99.90
24011;DHT22;12217;50.792;4.372;2023-07-31T00:35:16;17.70;99.90
24011;DHT22;12217;50.792;4.372;2023-07-31T00:37:41;17.80;99.90
24011;DHT22;12217;50.792;4.372;2023-07-31T00:40:08;17.80;99.90
24011;DHT22;12217;50.792;4.372;2023-07-31T00:42:34;17.90;99.90
24011;DHT22;12217;50.792;4.372;2023-07-31T00:45:00;17.90;99.90
24011;DHT22;12217;50.792;4.372;2023-07-31T00:47:25;17.80;99.90
24011;DHT22;12217;50.792;4.372;2023-07-31T00:49:51;17.80;99.90
24011;DHT22;12217;50.792;4.372;2023-07-31T00:52:18;18.00;99.90
24011;DHT22;12217;50.792;4.372;2023-07-31T00:54:43;18.00;99.90
24011;DHT22;12217;50.792;4.372;2023-07-31T00:57:09;17.90;99.90
24011;DHT22;12217;50.792;4.372;2023-07-31T00:59:35;17.80;99.90
24011;DHT22;12217;50.792;4.372;2023-07-31T01:02:01;17.70;99.90
24011;DHT22;12217;50.792;4.372;2023-07-31T01:04:27;17.80;99.90
24011;DHT22;12217;50.792;4.372;2023-07-31T01:06:56;17.80;99.90
24011;DHT22;12217;50.792;4.372;2023-07-31T01:09:44;17.80;99.90
24011;DHT22;12217;50.792;4.372;2023-07-31T01:12:15;17.80;99.90
24011;DHT22;12217;50.792;4.372;2023-07-31T01:14:51;17.70;99.90
24011;DHT22;12217;50.792;4.372;2023-07-31T01:17:16;17.70;99.90
24011;DHT22;12217;50.792;4.372;2023-07-31T01:19:42;17.70;99.90
24011;DHT22;12217;50.792;4.372;2023-07-31T01:24:49;17.80;99.90
24011;DHT22;12217;50.792;4.372;2023-07-31T01:27:24;17.90;99.90
24011;DHT22;12217;50.792;4.372;2023-07-31T01:29:56;17.90;99.90
24011;DHT22;12217;50.792;4.372;2023-07-31T01:32:22;17.80;99.90
24011;DHT22;12217;50.792;4.372;2023-07-31T01:34:49;17.80;99.90
24011;DHT22;12217;50.792;4.372;2023-07-31T01:37:15;17.90;99.90
24011;DHT22;12217;50.792;4.372;2023-07-31T01:39:41;17.90;99.90
24011;DHT22;12217;50.792;4.372;2023-07-31T01:42:06;18.00;99.90
24011;DHT22;12217;50.792;4.372;2023-07-31T01:44:33;17.90;99.90
24011;DHT22;12217;50.792;4.372;2023-07-31T01:46:58;17.90;99.90
24011;DHT22;12217;50.792;4.372;2023-07-31T01:49:25;17.80;99.90
24011;DHT22;12217;50.792;4.372;2023-07-31T01:51:51;17.80;99.90
24011;DHT22;12217;50.792;4.372;2023-07-31T01:54:16;17.80;99.90
24011;DHT22;12217;50.792;4.372;2023-07-31T01:56:42;17.90;99.90
24011;DHT22;12217;50.792;4.372;2023-07-31T01:59:08;18.00;99.90
24011;DHT22;12217;50.792;4.372;2023-07-31T02:01:33;18.10;99.90
24011;DHT22;12217;50.792;4.372;2023-07-31T02:03:59;18.10;99.90
24011;DHT22;12217;50.792;4.372;2023-07-31T02:06:24;18.00;99.90
24011;DHT22;12217;50.792;4.372;2023-07-31T02:08:50;17.90;99.90
24011;DHT22;12217;50.792;4.372;2023-07-31T02:11:16;17.80;99.90
24011;DHT22;12217;50.792;4.372;2023-07-31T02:13:41;17.80;99.90
24011;DHT22;12217;50.792;4.372;2023-07-31T02:16:07;17.80;99.90
24011;DHT22;12217;50.792;4.372;2023-07-31T02:18:32;18.00;99.90
24011;DHT22;12217;50.792;4.372;2023-07-31T02:20:58;18.00;99.90
24011;DHT22;12217;50.792;4.372;2023-07-31T02:23:23;17.90;99.90
24011;DHT22;12217;50.792;4.372;2023-07-31T02:25:49;17.90;99.90
24011;DHT22;12217;50.792;4.372;2023-07-31T02:28:15;18.00;99.90
24011;DHT22;12217;50.792;4.372;2023-07-31T02:30:44;17.90;99.90
24011;DHT22;12217;50.792;4.372;2023-07-31T02:33:10;17.90;99.90
24011;DHT22;12217;50.792;4.372;2023-07-31T02:35:36;18.00;99.90
24011;DHT22;12217;50.792;4.372;2023-07-31T02:38:01;18.00;99.90
24011;DHT22;12217;50.792;4.372;2023-07-31T02:40:27;17.90;99.90
24011;DHT22;12217;50.792;4.372;2023-07-31T02:42:53;17.70;99.90
24011;DHT22;12217;50.792;4.372;2023-07-31T02:45:18;17.70;99.90
24011;DHT22;12217;50.792;4.372;2023-07-31T02:47:44;17.80;99.90
24011;DHT22;12217;50.792;4.372;2023-07-31T02:50:09;17.90;99.90
24011;DHT22;12217;50.792;4.372;2023-07-31T02:52:36;17.80;99.90
24011;DHT22;12217;50.792;4.372;2023-07-31T02:55:01;17.90;99.90
24011;DHT22;12217;50.792;4.372;2023-07-31T02:57:27;18.00;99.90
24011;DHT22;12217;50.792;4.372;2023-07-31T02:59:52;17.90;99.90
24011;DHT22;12217;50.792;4.372;2023-07-31T03:02:18;17.90;99.90
24011;DHT22;12217;50.792;4.372;2023-07-31T03:04:44;17.70;99.90
24011;DHT22;12217;50.792;4.372;2023-07-31T03:07:09;17.90;99.90
24011;DHT22;12217;50.792;4.372;2023-07-31T03:09:35;17.90;99.90
24011;DHT22;12217;50.792;4.372;2023-07-31T03:12:00;17.90;99.90
24011;DHT22;12217;50.792;4.372;2023-07-31T03:14:26;18.00;99.90
24011;DHT22;12217;50.792;4.372;2023-07-31T03:16:52;17.90;99.90
24011;DHT22;12217;50.792;4.372;2023-07-31T03:19:17;17.90;99.90
24011;DHT22;12217;50.792;4.372;2023-07-31T03:21:43;17.70;99.90
24011;DHT22;12217;50.792;4.372;2023-07-31T03:24:09;17.70;99.90
24011;DHT22;12217;50.792;4.372;2023-07-31T03:26:34;17.60;99.90
24011;DHT22;12217;50.792;4.372;2023-07-31T03:29:01;17.70;99.90
24011;DHT22;12217;50.792;4.372;2023-07-31T03:31:27;17.80;99.90
24011;DHT22;12217;50.792;4.372;2023-07-31T03:33:52;17.90;99.90
24011;DHT22;12217;50.792;4.372;2023-07-31T03:36:18;18.00;99.90
24011;DHT22;12217;50.792;4.372;2023-07-31T03:38:43;18.00;99.90
24011;DHT22;12217;50.792;4.372;2023-07-31T03:41:09;18.00;99.90
24011;DHT22;12217;50.792;4.372;2023-07-31T03:43:35;17.90;99.90
24011;DHT22;12217;50.792;4.372;2023-07-31T03:46:01;17.80;99.90
24011;DHT22;12217;50.792;4.372;2023-07-31T03:48:28;17.90;99.90
24011;DHT22;12217;50.792;4.372;2023-07-31T03:50:53;17.80;99.90
24011;DHT22;12217;50.792;4.372;2023-07-31T03:53:19;17.70;99.90
24011;DHT22;12217;50.792;4.372;2023-07-31T03:55:45;17.80;99.90
24011;DHT22;12217;50.792;4.372;2023-07-31T03:58:10;17.80;99.90
24011;DHT22;12217;50.792;4.372;2023-07-31T04:00:36;17.60;99.90
24011;DHT22;12217;50.792;4.372;2023-07-31T04:03:02;17.50;99.90
24011;DHT22;12217;50.792;4.372;2023-07-31T04:05:30;17.30;99.90
24011;DHT22;12217;50.792;4.372;2023-07-31T04:07:55;17.40;99.90
24011;DHT22;12217;50.792;4.372;2023-07-31T04:10:21;17.40;99.90
24011;DHT22;12217;50.792;4.372;2023-07-31T04:12:46;17.40;99.90
24011;DHT22;12217;50.792;4.372;2023-07-31T04:15:12;17.40;99.90
24011;DHT22;12217;50.792;4.372;2023-07-31T04:17:37;17.50;99.90
24011;DHT22;12217;50.792;4.372;2023-07-31T04:20:03;17.50;99.90
24011;DHT22;12217;50.792;4.372;2023-07-31T04:22:29;17.60;99.90
24011;DHT22;12217;50.792;4.372;2023-07-31T04:24:55;17.50;99.90
24011;DHT22;12217;50.792;4.372;2023-07-31T04:27:20;17.60;99.90
24011;DHT22;12217;50.792;4.372;2023-07-31T04:29:46;17.60;99.90
24011;DHT22;12217;50.792;4.372;2023-07-31T04:32:12;17.50;99.90
24011;DHT22;12217;50.792;4.372;2023-07-31T04:34:38;17.50;99.90
24011;DHT22;12217;50.792;4.372;2023-07-31T04:37:04;17.50;99.90
24011;DHT22;12217;50.792;4.372;2023-07-31T04:39:29;17.50;99.90
24011;DHT22;12217;50.792;4.372;2023-07-31T04:41:55;17.50;99.90
24011;DHT22;12217;50.792;4.372;2023-07-31T04:44:20;17.60;99.90
24011;DHT22;12217;50.792;4.372;2023-07-31T04:46:46;17.70;99.90
24011;DHT22;12217;50.792;4.372;2023-07-31T04:49:12;17.60;99.90
24011;DHT22;12217;50.792;4.372;2023-07-31T04:51:37;17.70;99.90
24011;DHT22;12217;50.792;4.372;2023-07-31T04:54:03;17.60;99.90
24011;DHT22;12217;50.792;4.372;2023-07-31T04:56:28;17.40;99.90
24011;DHT22;12217;50.792;4.372;2023-07-31T04:58:54;17.40;99.90
24011;DHT22;12217;50.792;4.372;2023-07-31T05:01:20;17.50;99.90
24011;DHT22;12217;50.792;4.372;2023-07-31T05:03:45;17.60;99.90
24011;DHT22;12217;50.792;4.372;2023-07-31T05:06:11;17.50;99.90
24011;DHT22;12217;50.792;4.372;2023-07-31T05:08:37;17.40;99.90
24011;DHT22;12217;50.792;4.372;2023-07-31T05:11:03;17.30;99.90
24011;DHT22;12217;50.792;4.372;2023-07-31T05:13:28;17.20;99.90
24011;DHT22;12217;50.792;4.372;2023-07-31T05:15:54;17.10;99.90
24011;DHT22;12217;50.792;4.372;2023-07-31T05:18:19;17.10;99.90
24011;DHT22;12217;50.792;4.372;2023-07-31T05:20:45;17.00;99.90
24011;DHT22;12217;50.792;4.372;2023-07-31T05:23:11;17.10;99.90
24011;DHT22;12217;50.792;4.372;2023-07-31T05:25:36;17.10;99.90
24011;DHT22;12217;50.792;4.372;2023-07-31T05:28:02;17.20;99.90
24011;DHT22;12217;50.792;4.372;2023-07-31T05:30:29;17.10;99.90
24011;DHT22;12217;50.792;4.372;2023-07-31T05:32:55;17.20;99.90
24011;DHT22;12217;50.792;4.372;2023-07-31T05:35:21;17.30;99.90
24011;DHT22;12217;50.792;4.372;2023-07-31T05:37:46;17.10;99.90
24011;DHT22;12217;50.792;4.372;2023-07-31T05:40:12;17.20;99.90
24011;DHT22;12217;50.792;4.372;2023-07-31T05:42:37;17.20;99.90
24011;DHT22;12217;50.792;4.372;2023-07-31T05:45:05;17.30;99.90
24011;DHT22;12217;50.792;4.372;2023-07-31T05:47:30;17.20;99.90
24011;DHT22;12217;50.792;4.372;2023-07-31T05:49:56;17.30;99.90
24011;DHT22;12217;50.792;4.372;2023-07-31T05:52:22;17.20;99.90
24011;DHT22;12217;50.792;4.372;2023-07-31T05:54:47;17.20;99.90
24011;DHT22;12217;50.792;4.372;2023-07-31T05:57:13;17.20;99.90
24011;DHT22;12217;50.792;4.372;2023-07-31T05:59:38;17.20;99.90
24011;DHT22;12217;50.792;4.372;2023-07-31T06:02:04;17.10;99.90
24011;DHT22;12217;50.792;4.372;2023-07-31T06:04:30;17.10;99.90
24011;DHT22;12217;50.792;4.372;2023-07-31T06:06:56;17.00;99.90
24011;DHT22;12217;50.792;4.372;2023-07-31T06:09:21;17.00;99.90
24011;DHT22;12217;50.792;4.372;2023-07-31T06:11:47;17.00;99.90
24011;DHT22;12217;50.792;4.372;2023-07-31T06:14:13;17.00;99.90
24011;DHT22;12217;50.792;4.372;2023-07-31T06:16:38;17.10;99.90
24011;DHT22;12217;50.792;4.372;2023-07-31T06:19:04;17.10;99.90
24011;DHT22;12217;50.792;4.372;2023-07-31T06:21:30;17.10;99.90
24011;DHT22;12217;50.792;4.372;2023-07-31T06:23:56;17.00;99.90
24011;DHT22;12217;50.792;4.372;2023-07-31T06:26:22;17.10;99.90
24011;DHT22;12217;50.792;4.372;2023-07-31T06:28:47;17.10;99.90
24011;DHT22;12217;50.792;4.372;2023-07-31T06:31:13;17.00;99.90
24011;DHT22;12217;50.792;4.372;2023-07-31T06:33:38;17.00;99.90
24011;DHT22;12217;50.792;4.372;2023-07-31T06:36:04;17.00;99.90
24011;DHT22;12217;50.792;4.372;2023-07-31T06:38:29;17.10;99.90
24011;DHT22;12217;50.792;4.372;2023-07-31T06:40:55;17.10;99.90
24011;DHT22;12217;50.792;4.372;2023-07-31T06:43:21;17.00;99.90
24011;DHT22;12217;50.792;4.372;2023-07-31T06:45:46;17.00;99.90
24011;DHT22;12217;50.792;4.372;2023-07-31T06:48:13;17.10;99.90
24011;DHT22;12217;50.792;4.372;2023-07-31T06:50:39;17.20;99.90
24011;DHT22;12217;50.792;4.372;2023-07-31T06:53:05;17.30;99.90
24011;DHT22;12217;50.792;4.372;2023-07-31T06:55:30;17.30;99.90
24011;DHT22;12217;50.792;4.372;2023-07-31T06:57:56;17.20;99.90
24011;DHT22;12217;50.792;4.372;2023-07-31T07:00:23;17.20;99.90
24011;DHT22;12217;50.792;4.372;2023-07-31T07:02:49;17.40;99.90
24011;DHT22;12217;50.792;4.372;2023-07-31T07:05:16;17.40;99.90
24011;DHT22;12217;50.792;4.372;2023-07-31T07:07:42;17.40;99.90
24011;DHT22;12217;50.792;4.372;2023-07-31T07:10:09;17.50;99.90
24011;DHT22;12217;50.792;4.372;2023-07-31T07:12:35;17.50;99.90
24011;DHT22;12217;50.792;4.372;2023-07-31T07:15:01;17.50;99.90
24011;DHT22;12217;50.792;4.372;2023-07-31T07:17:28;17.50;99.90
24011;DHT22;12217;50.792;4.372;2023-07-31T07:19:56;17.50;99.90
24011;DHT22;12217;50.792;4.372;2023-07-31T07:22:22;17.60;99.90
24011;DHT22;12217;50.792;4.372;2023-07-31T07:24:48;17.70;99.90
24011;DHT22;12217;50.792;4.372;2023-07-31T07:27:14;17.70;99.90
24011;DHT22;12217;50.792;4.372;2023-07-31T07:29:40;17.60;99.90
24011;DHT22;12217;50.792;4.372;2023-07-31T07:32:06;17.60;99.90
24011;DHT22;12217;50.792;4.372;2023-07-31T07:34:31;17.60;99.90
24011;DHT22;12217;50.792;4.372;2023-07-31T07:36:57;17.60;99.90
24011;DHT22;12217;50.792;4.372;2023-07-31T07:39:23;17.70;99.90
24011;DHT22;12217;50.792;4.372;2023-07-31T07:41:48;17.80;99.90
24011;DHT22;12217;50.792;4.372;2023-07-31T07:44:14;17.80;99.90
24011;DHT22;12217;50.792;4.372;2023-07-31T07:46:40;17.80;99.90
24011;DHT22;12217;50.792;4.372;2023-07-31T07:49:06;17.90;99.90
24011;DHT22;12217;50.792;4.372;2023-07-31T07:51:32;18.00;99.90
24011;DHT22;12217;50.792;4.372;2023-07-31T07:53:58;18.00;99.90
24011;DHT22;12217;50.792;4.372;2023-07-31T07:56:25;17.80;99.90
24011;DHT22;12217;50.792;4.372;2023-07-31T07:58:51;17.80;99.90
24011;DHT22;12217;50.792;4.372;2023-07-31T08:01:16;17.80;99.90
24011;DHT22;12217;50.792;4.372;2023-07-31T08:03:42;17.70;99.90
24011;DHT22;12217;50.792;4.372;2023-07-31T08:06:08;17.80;99.90
24011;DHT22;12217;50.792;4.372;2023-07-31T08:08:35;17.80;99.90
24011;DHT22;12217;50.792;4.372;2023-07-31T08:11:01;17.80;99.90
24011;DHT22;12217;50.792;4.372;2023-07-31T08:13:26;17.70;99.90
24011;DHT22;12217;50.792;4.372;2023-07-31T08:15:52;17.60;99.90
24011;DHT22;12217;50.792;4.372;2023-07-31T08:18:17;17.70;99.90
24011;DHT22;12217;50.792;4.372;2023-07-31T08:20:43;17.80;99.90
24011;DHT22;12217;50.792;4.372;2023-07-31T08:23:09;17.90;99.90
24011;DHT22;12217;50.792;4.372;2023-07-31T08:25:37;17.70;99.90
24011;DHT22;12217;50.792;4.372;2023-07-31T08:28:04;17.60;99.90
24011;DHT22;12217;50.792;4.372;2023-07-31T08:30:30;17.40;99.90
24011;DHT22;12217;50.792;4.372;2023-07-31T08:32:56;17.40;99.90
24011;DHT22;12217;50.792;4.372;2023-07-31T08:35:21;17.60;99.90
24011;DHT22;12217;50.792;4.372;2023-07-31T08:37:47;17.70;99.90
24011;DHT22;12217;50.792;4.372;2023-07-31T08:40:13;17.70;99.90
24011;DHT22;12217;50.792;4.372;2023-07-31T08:42:49;17.80;99.90
24011;DHT22;12217;50.792;4.372;2023-07-31T08:45:16;17.70;99.90
24011;DHT22;12217;50.792;4.372;2023-07-31T08:47:50;17.80;99.90
24011;DHT22;12217;50.792;4.372;2023-07-31T08:50:19;18.00;99.90
24011;DHT22;12217;50.792;4.372;2023-07-31T08:52:46;17.70;99.90
24011;DHT22;12217;50.792;4.372;2023-07-31T08:55:12;17.50;99.90
24011;DHT22;12217;50.792;4.372;2023-07-31T08:57:38;17.40;99.90
24011;DHT22;12217;50.792;4.372;2023-07-31T09:00:06;17.60;99.90
24011;DHT22;12217;50.792;4.372;2023-07-31T09:02:41;17.70;99.90
24011;DHT22;12217;50.792;4.372;2023-07-31T09:05:09;17.80;99.90
24011;DHT22;12217;50.792;4.372;2023-07-31T09:07:36;17.80;99.90
24011;DHT22;12217;50.792;4.372;2023-07-31T09:10:03;17.80;99.90
24011;DHT22;12217;50.792;4.372;2023-07-31T09:12:29;17.90;99.90
24011;DHT22;12217;50.792;4.372;2023-07-31T09:14:57;18.00;99.90
24011;DHT22;12217;50.792;4.372;2023-07-31T09:17:33;18.10;99.90
24011;DHT22;12217;50.792;4.372;2023-07-31T09:20:19;18.20;99.90
24011;DHT22;12217;50.792;4.372;2023-07-31T09:22:47;18.10;99.90
24011;DHT22;12217;50.792;4.372;2023-07-31T09:25:24;18.10;99.90
24011;DHT22;12217;50.792;4.372;2023-07-31T09:27:51;18.00;99.90
24011;DHT22;12217;50.792;4.372;2023-07-31T09:30:17;18.10;99.90
24011;DHT22;12217;50.792;4.372;2023-07-31T09:32:47;18.00;99.90
24011;DHT22;12217;50.792;4.372;2023-07-31T09:35:22;18.10;99.90
24011;DHT22;12217;50.792;4.372;2023-07-31T09:37:52;18.20;99.90
24011;DHT22;12217;50.792;4.372;2023-07-31T09:40:27;18.20;99.90
24011;DHT22;12217;50.792;4.372;2023-07-31T09:43:04;18.20;99.90
24011;DHT22;12217;50.792;4.372;2023-07-31T09:45:37;18.20;99.90
24011;DHT22;12217;50.792;4.372;2023-07-31T09:48:03;18.20;99.90
24011;DHT22;12217;50.792;4.372;2023-07-31T09:50:32;18.00;99.90
24011;DHT22;12217;50.792;4.372;2023-07-31T09:52:57;18.00;99.90
24011;DHT22;12217;50.792;4.372;2023-07-31T09:55:24;17.90;99.90
24011;DHT22;12217;50.792;4.372;2023-07-31T09:57:50;17.80;99.90
24011;DHT22;12217;50.792;4.372;2023-07-31T10:00:17;17.90;99.90
24011;DHT22;12217;50.792;4.372;2023-07-31T10:02:45;17.90;99.90
24011;DHT22;12217;50.792;4.372;2023-07-31T10:05:14;18.00;99.90
24011;DHT22;12217;50.792;4.372;2023-07-31T10:07:47;17.90;99.90
24011;DHT22;12217;50.792;4.372;2023-07-31T10:10:15;18.00;99.90
24011;DHT22;12217;50.792;4.372;2023-07-31T10:12:41;18.00;99.90
24011;DHT22;12217;50.792;4.372;2023-07-31T10:15:08;18.10;99.90
24011;DHT22;12217;50.792;4.372;2023-07-31T10:17:35;18.10;99.90
24011;DHT22;12217;50.792;4.372;2023-07-31T10:20:02;18.30;99.90
24011;DHT22;12217;50.792;4.372;2023-07-31T10:22:31;18.40;99.90
24011;DHT22;12217;50.792;4.372;2023-07-31T10:25:00;18.40;99.90
24011;DHT22;12217;50.792;4.372;2023-07-31T10:27:26;18.40;99.90
24011;DHT22;12217;50.792;4.372;2023-07-31T10:29:55;18.40;99.90
24011;DHT22;12217;50.792;4.372;2023-07-31T10:32:22;18.60;99.90
24011;DHT22;12217;50.792;4.372;2023-07-31T10:34:49;18.80;99.90
24011;DHT22;12217;50.792;4.372;2023-07-31T10:42:33;18.90;99.90
24011;DHT22;12217;50.792;4.372;2023-07-31T10:45:09;18.80;99.90
24011;DHT22;12217;50.792;4.372;2023-07-31T10:47:41;18.80;99.90
24011;DHT22;12217;50.792;4.372;2023-07-31T10:50:16;18.80;99.90
24011;DHT22;12217;50.792;4.372;2023-07-31T10:52:46;18.70;99.90
24011;DHT22;12217;50.792;4.372;2023-07-31T10:55:32;18.80;99.90
24011;DHT22;12217;50.792;4.372;2023-07-31T10:58:06;18.80;99.90
24011;DHT22;12217;50.792;4.372;2023-07-31T11:00:32;18.80;99.90
24011;DHT22;12217;50.792;4.372;2023-07-31T11:02:59;18.70;99.90
24011;DHT22;12217;50.792;4.372;2023-07-31T11:08:22;19.00;99.90
24011;DHT22;12217;50.792;4.372;2023-07-31T11:13:33;19.10;99.90
24011;DHT22;12217;50.792;4.372;2023-07-31T11:16:00;19.00;99.90
24011;DHT22;12217;50.792;4.372;2023-07-31T11:18:26;18.90;99.90
24011;DHT22;12217;50.792;4.372;2023-07-31T11:20:53;19.00;99.90
24011;DHT22;12217;50.792;4.372;2023-07-31T11:23:19;19.20;99.90
24011;DHT22;12217;50.792;4.372;2023-07-31T11:25:45;19.10;99.90
24011;DHT22;12217;50.792;4.372;2023-07-31T11:28:13;19.20;99.90
24011;DHT22;12217;50.792;4.372;2023-07-31T11:30:39;19.20;99.90
24011;DHT22;12217;50.792;4.372;2023-07-31T11:33:06;19.20;99.90
24011;DHT22;12217;50.792;4.372;2023-07-31T11:35:41;19.30;99.90
24011;DHT22;12217;50.792;4.372;2023-07-31T11:38:33;19.40;99.90
24011;DHT22;12217;50.792;4.372;2023-07-31T11:40:58;19.30;99.90
24011;DHT22;12217;50.792;4.372;2023-07-31T11:43:24;19.20;99.90
24011;DHT22;12217;50.792;4.372;2023-07-31T11:45:53;19.20;99.90
24011;DHT22;12217;50.792;4.372;2023-07-31T11:48:24;19.20;99.90
24011;DHT22;12217;50.792;4.372;2023-07-31T11:50:51;19.40;99.90
24011;DHT22;12217;50.792;4.372;2023-07-31T11:53:21;19.30;99.90
24011;DHT22;12217;50.792;4.372;2023-07-31T11:55:47;19.30;99.90
24011;DHT22;12217;50.792;4.372;2023-07-31T11:58:14;19.30;99.90
24011;DHT22;12217;50.792;4.372;2023-07-31T12:00:41;19.30;99.90
24011;DHT22;12217;50.792;4.372;2023-07-31T12:03:07;19.40;99.90
24011;DHT22;12217;50.792;4.372;2023-07-31T12:05:33;19.60;99.90
24011;DHT22;12217;50.792;4.372;2023-07-31T12:07:58;19.60;99.90
24011;DHT22;12217;50.792;4.372;2023-07-31T12:10:29;19.70;99.90
24011;DHT22;12217;50.792;4.372;2023-07-31T12:13:08;19.90;99.90
24011;DHT22;12217;50.792;4.372;2023-07-31T12:15:40;19.80;99.90
24011;DHT22;12217;50.792;4.372;2023-07-31T12:18:14;19.80;99.90
24011;DHT22;12217;50.792;4.372;2023-07-31T12:20:45;19.90;99.90
24011;DHT22;12217;50.792;4.372;2023-07-31T12:23:16;19.90;99.90
24011;DHT22;12217;50.792;4.372;2023-07-31T12:25:42;19.80;99.90
24011;DHT22;12217;50.792;4.372;2023-07-31T12:28:07;19.80;99.90
24011;DHT22;12217;50.792;4.372;2023-07-31T12:30:38;19.80;99.90
24011;DHT22;12217;50.792;4.372;2023-07-31T12:33:15;19.80;99.90
24011;DHT22;12217;50.792;4.372;2023-07-31T12:35:45;19.80;99.90
24011;DHT22;12217;50.792;4.372;2023-07-31T12:38:12;20.00;99.90
24011;DHT22;12217;50.792;4.372;2023-07-31T12:40:39;20.00;99.90
24011;DHT22;12217;50.792;4.372;2023-07-31T12:43:05;19.90;99.90
24011;DHT22;12217;50.792;4.372;2023-07-31T12:45:31;19.90;99.90
24011;DHT22;12217;50.792;4.372;2023-07-31T12:47:58;19.90;99.90
24011;DHT22;12217;50.792;4.372;2023-07-31T12:50:24;20.10;99.90
24011;DHT22;12217;50.792;4.372;2023-07-31T12:52:51;20.20;99.90
24011;DHT22;12217;50.792;4.372;2023-07-31T12:55:16;20.20;99.90
24011;DHT22;12217;50.792;4.372;2023-07-31T12:57:44;19.90;99.90
24011;DHT22;12217;50.792;4.372;2023-07-31T13:00:10;19.80;99.90
24011;DHT22;12217;50.792;4.372;2023-07-31T13:02:36;19.70;99.90
24011;DHT22;12217;50.792;4.372;2023-07-31T13:05:02;19.70;99.90
24011;DHT22;12217;50.792;4.372;2023-07-31T13:07:27;19.50;99.90
24011;DHT22;12217;50.792;4.372;2023-07-31T13:09:53;19.50;99.90
24011;DHT22;12217;50.792;4.372;2023-07-31T13:12:19;19.50;99.90
24011;DHT22;12217;50.792;4.372;2023-07-31T13:14:44;19.40;99.90
24011;DHT22;12217;50.792;4.372;2023-07-31T13:17:10;19.40;99.90
24011;DHT22;12217;50.792;4.372;2023-07-31T13:19:35;19.30;99.90
24011;DHT22;12217;50.792;4.372;2023-07-31T13:22:01;19.20;99.90
24011;DHT22;12217;50.792;4.372;2023-07-31T13:24:26;19.00;99.90
24011;DHT22;12217;50.792;4.372;2023-07-31T13:26:52;19.10;99.90
24011;DHT22;12217;50.792;4.372;2023-07-31T13:29:17;18.90;99.90
24011;DHT22;12217;50.792;4.372;2023-07-31T13:31:43;18.80;99.90
24011;DHT22;12217;50.792;4.372;2023-07-31T13:34:09;18.80;99.90
24011;DHT22;12217;50.792;4.372;2023-07-31T13:36:34;19.00;99.90
24011;DHT22;12217;50.792;4.372;2023-07-31T13:39:02;18.90;99.90
24011;DHT22;12217;50.792;4.372;2023-07-31T13:41:28;18.80;99.90
24011;DHT22;12217;50.792;4.372;2023-07-31T13:43:53;18.90;99.90
24011;DHT22;12217;50.792;4.372;2023-07-31T13:46:19;18.90;99.90
24011;DHT22;12217;50.792;4.372;2023-07-31T13:48:44;18.90;99.90
24011;DHT22;12217;50.792;4.372;2023-07-31T13:51:10;18.80;99.90
24011;DHT22;12217;50.792;4.372;2023-07-31T13:53:35;18.60;99.90
24011;DHT22;12217;50.792;4.372;2023-07-31T13:56:01;18.50;99.90
24011;DHT22;12217;50.792;4.372;2023-07-31T13:58:26;18.50;99.90
24011;DHT22;12217;50.792;4.372;2023-07-31T14:00:52;18.60;99.90
24011;DHT22;12217;50.792;4.372;2023-07-31T14:03:17;18.70;99.90
24011;DHT22;12217;50.792;4.372;2023-07-31T14:05:43;18.70;99.90
24011;DHT22;12217;50.792;4.372;2023-07-31T14:08:08;18.60;99.90
24011;DHT22;12217;50.792;4.372;2023-07-31T14:10:34;18.40;99.90
24011;DHT22;12217;50.792;4.372;2023-07-31T14:13:00;18.40;99.90
24011;DHT22;12217;50.792;4.372;2023-07-31T14:15:25;18.40;99.90
24011;DHT22;12217;50.792;4.372;2023-07-31T14:17:51;18.50;99.90
24011;DHT22;12217;50.792;4.372;2023-07-31T14:20:17;18.60;99.90
24011;DHT22;12217;50.792;4.372;2023-07-31T14:22:42;18.50;99.90
24011;DHT22;12217;50.792;4.372;2023-07-31T14:25:08;18.40;99.90
24011;DHT22;12217;50.792;4.372;2023-07-31T14:27:36;18.50;99.90
24011;DHT22;12217;50.792;4.372;2023-07-31T14:30:02;18.60;99.90
24011;DHT22;12217;50.792;4.372;2023-07-31T14:32:27;18.60;99.90
24011;DHT22;12217;50.792;4.372;2023-07-31T14:34:53;18.70;99.90
24011;DHT22;12217;50.792;4.372;2023-07-31T14:37:20;18.80;99.90
24011;DHT22;12217;50.792;4.372;2023-07-31T14:39:46;18.80;99.90
24011;DHT22;12217;50.792;4.372;2023-07-31T14:42:11;18.80;99.90
24011;DHT22;12217;50.792;4.372;2023-07-31T14:44:37;18.70;99.90
24011;DHT22;12217;50.792;4.372;2023-07-31T14:47:03;18.60;99.90
24011;DHT22;12217;50.792;4.372;2023-07-31T14:49:28;18.60;99.90
24011;DHT22;12217;50.792;4.372;2023-07-31T14:51:54;18.60;99.90
24011;DHT22;12217;50.792;4.372;2023-07-31T14:54:20;18.70;99.90
24011;DHT22;12217;50.792;4.372;2023-07-31T14:56:46;18.80;99.90
24011;DHT22;12217;50.792;4.372;2023-07-31T14:59:11;18.80;99.90
24011;DHT22;12217;50.792;4.372;2023-07-31T15:01:37;18.60;99.90
24011;DHT22;12217;50.792;4.372;2023-07-31T15:04:03;18.50;99.90
24011;DHT22;12217;50.792;4.372;2023-07-31T15:06:29;18.50;99.90
24011;DHT22;12217;50.792;4.372;2023-07-31T15:08:55;18.40;99.90
24011;DHT22;12217;50.792;4.372;2023-07-31T15:11:20;18.50;99.90
24011;DHT22;12217;50.792;4.372;2023-07-31T15:13:46;18.50;99.90
24011;DHT22;12217;50.792;4.372;2023-07-31T15:16:12;18.50;99.90
24011;DHT22;12217;50.792;4.372;2023-07-31T15:18:38;18.50;99.90
24011;DHT22;12217;50.792;4.372;2023-07-31T15:21:04;18.60;99.90
24011;DHT22;12217;50.792;4.372;2023-07-31T15:23:31;18.60;99.90
24011;DHT22;12217;50.792;4.372;2023-07-31T15:25:56;18.60;99.90
24011;DHT22;12217;50.792;4.372;2023-07-31T15:28:22;18.70;99.90
24011;DHT22;12217;50.792;4.372;2023-07-31T15:30:47;18.70;99.90
24011;DHT22;12217;50.792;4.372;2023-07-31T15:33:13;18.80;99.90
24011;DHT22;12217;50.792;4.372;2023-07-31T15:35:39;18.80;99.90
24011;DHT22;12217;50.792;4.372;2023-07-31T15:38:06;18.60;99.90
24011;DHT22;12217;50.792;4.372;2023-07-31T15:40:31;18.40;99.90